TimeMDT,TemperatureF,Dew PointF,Humidity,Sea Level PressureIn,VisibilityMPH,Wind Direction,Wind SpeedMPH,Gust SpeedMPH,PrecipitationIn,Events,Conditions,WindDirDegrees,DateUTC
12:53 AM,32.0,28.9,88,30.08,10.0,ENE,4.6,-,N/A,,Clear,70,2013-04-04 06:53:00
1:53 AM,30.9,28.9,92,30.09,10.0,Calm,Calm,-,N/A,,Clear,0,2013-04-04 07:53:00
2:53 AM,28.0,25.0,88,30.07,10.0,West,8.1,-,N/A,,Clear,260,2013-04-04 08:53:00
3:53 AM,28.0,26.1,92,30.07,10.0,WNW,5.8,-,N/A,,Clear,300,2013-04-04 09:53:00
4:53 AM,30.9,26.1,82,30.07,10.0,WSW,11.5,-,N/A,,Clear,240,2013-04-04 10:53:00
5:53 AM,30.9,27.0,85,30.07,10.0,Calm,Calm,-,N/A,,Clear,0,2013-04-04 11:53:00
6:53 AM,39.0,30.0,70,30.06,10.0,SW,5.8,-,N/A,,Clear,220,2013-04-04 12:53:00
7:53 AM,44.1,34.0,68,30.05,10.0,SW,12.7,-,N/A,,Clear,220,2013-04-04 13:53:00
8:53 AM,50.0,32.0,50,30.05,10.0,SW,16.1,25.3,N/A,,Clear,230,2013-04-04 14:53:00
9:53 AM,53.1,30.0,41,30.04,10.0,SSW,20.7,26.5,N/A,,Clear,210,2013-04-04 15:53:00
10:53 AM,57.0,28.0,33,30.04,10.0,SSW,20.7,-,N/A,,Clear,210,2013-04-04 16:53:00
11:53 AM,61.0,28.0,29,30.01,10.0,SSW,16.1,23.0,N/A,,Clear,200,2013-04-04 17:53:00
12:53 PM,63.0,23.0,22,29.97,10.0,WNW,11.5,-,N/A,,Mostly Cloudy,290,2013-04-04 18:53:00
1:53 PM,66.0,21.0,18,29.94,10.0,WSW,13.8,19.6,N/A,,Partly Cloudy,250,2013-04-04 19:53:00
2:53 PM,68.0,19.9,16,29.92,10.0,West,15.0,19.6,N/A,,Partly Cloudy,260,2013-04-04 20:53:00
3:53 PM,66.0,21.0,18,29.91,10.0,SW,9.2,-,N/A,,Clear,220,2013-04-04 21:53:00
4:53 PM,68.0,23.0,18,29.86,10.0,West,16.1,23.0,N/A,,Scattered Clouds,260,2013-04-04 22:53:00
5:53 PM,68.0,24.1,19,29.85,10.0,West,10.4,-,N/A,,Mostly Cloudy,270,2013-04-04 23:53:00
6:53 PM,62.1,21.0,21,29.84,10.0,NNW,8.1,-,N/A,,Partly Cloudy,330,2013-04-05 00:53:00
7:53 PM,54.0,23.0,30,29.85,10.0,Calm,Calm,-,N/A,,Clear,0,2013-04-05 01:53:00
8:53 PM,53.1,25.0,34,29.83,10.0,SSW,4.6,-,N/A,,Clear,210,2013-04-05 02:53:00
9:53 PM,50.0,28.0,43,29.83,10.0,SSW,4.6,-,N/A,,Clear,210,2013-04-05 03:53:00
10:53 PM,51.1,27.0,39,29.80,10.0,WSW,3.5,-,N/A,,Clear,250,2013-04-05 04:53:00
11:53 PM,53.1,26.1,35,29.76,10.0,SW,9.2,-,N/A,,Clear,230,2013-04-05 05:53:00